航空気象通報

ウインドサーファーのための航空気象通報による風予報です。

10/16-10/18の航空気象通報

2016年10月16日 23時01分12秒 | TAF

羽田空港
TAF RJTT 161108Z 1612/1718 12006KT 9999 FEW030 SCT050
BECMG 1617/1619 02010KT
TEMPO 1700/1706 4000 RA BR FEW003 BKN008
TEMPO 1706/1712 3000 SHRA BR FEW003 BKN008
日本時間16日21時-17日02時:120度から6ノットの風
02-04時:風が変化
04時-18日03時:020度から10ノットの風

但し、17日09-21時の間:ときどき

静岡空港
TAF RJNS 161105Z 1612/1718 04004KT 9999 FEW020 SCT040
TEMPO 1623/1703 4000 SHRA BR FEW005 BKN008
TEMPO 1703/1709 3000 SHRA BR FEW003 BKN005
TEMPO 1709/1712 4000 SHRA BR FEW003 BKN005
TEMPO 1712/1718 FEW003 BKN005
日本時間16日21時-18日03時:040度から4ノットの風

但し、17日08-21時の間:ときどき
但し、17日21時-18日03時の間:ときどき

福岡空港
TAF RJFF 161106Z 1612/1718 31006KT 8000 -SHRA FEW010 SCT020 BKN030
TEMPO 1612/1616 3000 SHRA BR
BECMG 1613/1615 16010KT
TEMPO 1616/1620 2000 TSRA BR FEW010 SCT020 BKN030 FEW030CB
BECMG 1620/1622 34011KT
日本時間16日21-22時:310度から6ノットの風
22-24時:風が変化
17日00-05時:160度から10ノットの風
05-07時:風が変化
07時-18日03時:340度から11ノットの風

但し、16日21時-17日01時の間:ときどき
但し、17日01-05時の間:ときどき

那覇空港
TAF ROAH 161105Z 1612/1718 11005KT 9999 FEW015
BECMG 1616/1618 04006KT
日本時間16日21時-17日01時:110度から5ノットの風
01-03時:風が変化
03時-18日03時:040度から6ノットの風

石垣空港
TAF ROIG 161108Z 1612/1718 07010KT 9999 FEW010 SCT025
TEMPO 1617/1620 4000 SHRA FEW008 BKN015 FEW020CB
TEMPO 1700/1703 4000 SHRA FEW008 BKN015 FEW020CB
日本時間16日21時-18日03時:070度から10ノットの風

但し、17日02-05時の間:ときどき
但し、17日09-12時の間:ときどき

マウイのカフルイ空港
PHOG 161138Z 1612/1712 04010KT P6SM FEW025 SCT050
FM161900 05014G22KT P6SM FEW025 SCT050
FM162200 06018G26KT P6SM FEW030 SCT050
FM170600 04010KT P6SM FEW030 SCT050
ハワイ時間16日02-09時:040度から10ノットの風
09-12時:050度から14ノット、突風22ノット
12-20時:060度から18ノット、突風26ノット
20時-17日02時:040度から10ノットの風

サイパン空港
TAF PGSN 161135Z 1612/1712 13006KT P6SM VCSH FEW020 SCT030 BKN120
FM170100 12010KT P6SM VCSH SCT018 SCT120
マリアナ時間16日22時-17日11時:130度から6ノットの風

11-22時:120度から10ノットの風

ジャンル:
お天気
コメント   この記事についてブログを書く
この記事をはてなブックマークに追加
« 10/15-10/17の航空気象通報 | トップ | 10/17-10/19の航空気象通報 »
最近の画像もっと見る

コメントを投稿

ブログ作成者から承認されるまでコメントは反映されません。

コメント利用規約に同意の上コメント投稿を行ってください。

数字4桁を入力し、投稿ボタンを押してください。

あわせて読む

トラックバック

この記事のトラックバック  Ping-URL
ブログ作成者から承認されるまでトラックバックは反映されません。
  • 30日以上前の記事に対するトラックバックは受け取らないよう設定されております。
  • 送信元の記事内容が半角英数のみのトラックバックは受け取らないよう設定されております。
  • このブログへのリンクがない記事からのトラックバックは受け取らないよう設定されております。
  • ※ブログ管理者のみ、編集画面で設定の変更が可能です。